Time;durP1;ratioP1;P1;durP2;ratioP2;P2;SDS_P1;SDS_P2;PMS_P1;PMS_P2;Temp;Humidity;BMP_temperature;BMP_pressure;BME280_temperature;BME280_humidity;BME280_pressure;Samples;Min_cycle;Max_cycle;Signal;HPM_P1;HPM_P2
2022/08/22 00:00:20;;;;;;;11.20;10.60;;;22.00;15.70;;;;;;5065149;28;20445;-79
2022/08/22 00:03:03;;;;;;;11.37;10.70;;;22.00;15.90;;;;;;5064809;28;20453;-80
2022/08/22 00:05:49;;;;;;;10.93;10.43;;;22.00;15.70;;;;;;5060077;28;20390;-80
2022/08/22 00:08:28;;;;;;;11.17;10.67;;;22.00;15.60;;;;;;5062568;28;20443;-79
2022/08/22 00:11:16;;;;;;;11.03;10.53;;;22.00;15.70;;;;;;5063122;28;20410;-79
2022/08/22 00:13:59;;;;;;;10.80;10.30;;;22.00;15.80;;;;;;5062423;28;20934;-79
2022/08/22 00:16:38;;;;;;;11.23;10.50;;;21.90;15.80;;;;;;5062691;28;20410;-80
2022/08/22 00:19:29;;;;;;;11.57;10.90;;;21.90;15.90;;;;;;5063807;28;20453;-79
2022/08/22 00:22:23;;;;;;;11.00;10.47;;;21.90;15.90;;;;;;5062656;28;20474;-80
2022/08/22 00:25:16;;;;;;;11.57;10.90;;;21.90;15.90;;;;;;5053752;28;20414;-79
2022/08/22 00:28:23;;;;;;;11.63;11.03;;;21.90;15.90;;;;;;5063543;28;20411;-80
2022/08/22 00:30:57;;;;;;;11.03;10.33;;;21.90;15.80;;;;;;5063498;28;20414;-80
2022/08/22 00:33:46;;;;;;;10.53;9.93;;;21.90;15.90;;;;;;5064011;28;20482;-79
2022/08/22 00:36:29;;;;;;;11.43;10.83;;;21.90;15.90;;;;;;5065004;28;20391;-79
2022/08/22 00:39:05;;;;;;;10.63;9.93;;;21.90;16.10;;;;;;5063761;28;21005;-79
2022/08/22 00:41:47;;;;;;;12.70;11.70;;;21.90;16.20;;;;;;5063113;28;20442;-80
2022/08/22 00:44:42;;;;;;;10.90;10.20;;;21.90;16.30;;;;;;5062989;28;20502;-80
2022/08/22 00:47:23;;;;;;;11.47;10.70;;;21.80;16.30;;;;;;5062547;28;20453;-80
2022/08/22 00:49:51;;;;;;;11.43;10.53;;;21.80;16.30;;;;;;5065443;28;20406;-79
2022/08/22 00:52:53;;;;;;;12.03;11.30;;;21.80;16.40;;;;;;5062534;28;20430;-79
2022/08/22 00:55:38;;;;;;;12.00;11.40;;;21.80;16.50;;;;;;5042845;28;20425;-80
2022/08/22 00:58:28;;;;;;;10.63;10.03;;;21.80;16.50;;;;;;5067361;28;20462;-80
2022/08/22 01:01:01;;;;;;;10.80;10.20;;;21.70;16.60;;;;;;5066273;28;20498;-79
2022/08/22 01:03:47;;;;;;;10.83;10.30;;;21.70;16.60;;;;;;5060678;28;20426;-79
2022/08/22 01:06:31;;;;;;;11.57;10.97;;;21.70;16.50;;;;;;5064184;28;20475;-79
2022/08/22 01:09:25;;;;;;;11.87;11.27;;;21.70;16.50;;;;;;5063932;28;20445;-78
2022/08/22 01:12:10;;;;;;;11.27;10.67;;;21.60;16.50;;;;;;5063232;28;20419;-79
2022/08/22 01:14:52;;;;;;;10.90;10.30;;;21.50;16.90;;;;;;5061807;28;20434;-79
2022/08/22 01:17:48;;;;;;;10.90;10.23;;;21.50;17.20;;;;;;5061586;28;20395;-80
2022/08/22 01:20:35;;;;;;;11.23;10.70;;;21.50;17.40;;;;;;5054331;28;20441;-79
2022/08/22 01:23:20;;;;;;;11.20;10.63;;;21.40;17.20;;;;;;5053983;28;20430;-80
2022/08/22 01:26:07;;;;;;;11.87;11.00;;;21.40;17.20;;;;;;5053349;28;20438;-79
2022/08/22 01:28:55;;;;;;;11.00;10.30;;;21.40;17.20;;;;;;5061420;28;20445;-80
2022/08/22 01:31:23;;;;;;;11.40;10.80;;;21.40;17.30;;;;;;5063677;28;20379;-79
2022/08/22 01:34:16;;;;;;;11.57;10.97;;;21.40;17.20;;;;;;5059817;28;20537;-80
2022/08/22 01:36:53;;;;;;;11.77;10.73;;;21.40;17.20;;;;;;5061283;28;20395;-79
2022/08/22 01:39:25;;;;;;;12.33;11.30;;;21.40;17.10;;;;;;5063015;28;20611;-79
2022/08/22 01:42:29;;;;;;;11.93;11.33;;;21.40;17.00;;;;;;5061484;28;20402;-79
2022/08/22 01:45:13;;;;;;;11.33;10.83;;;21.40;17.20;;;;;;5061469;28;20425;-79
2022/08/22 01:47:58;;;;;;;12.27;11.37;;;21.30;17.20;;;;;;5060923;28;20418;-79
2022/08/22 01:50:35;;;;;;;11.10;10.60;;;21.30;17.30;;;;;;5060184;28;20500;-79
2022/08/22 01:53:23;;;;;;;11.83;11.03;;;21.30;17.30;;;;;;5061611;28;20433;-79
2022/08/22 01:56:17;;;;;;;12.07;11.13;;;21.30;17.50;;;;;;5060403;28;20468;-79
2022/08/22 01:58:56;;;;;;;12.10;11.40;;;21.30;17.30;;;;;;5060433;28;20503;-79
2022/08/22 02:01:45;;;;;;;12.57;11.43;;;21.30;17.40;;;;;;5060866;28;20414;-80
2022/08/22 02:04:34;;;;;;;12.20;11.57;;;21.30;17.70;;;;;;5061328;28;20837;-79
2022/08/22 02:07:18;;;;;;;12.00;11.23;;;21.20;17.90;;;;;;5060265;28;20830;-79
2022/08/22 02:10:00;;;;;;;11.77;11.10;;;21.20;18.10;;;;;;5061103;28;20500;-79
2022/08/22 02:12:31;;;;;;;11.80;11.20;;;21.20;18.20;;;;;;5060843;28;21052;-79
2022/08/22 02:15:18;;;;;;;12.40;11.77;;;21.20;18.20;;;;;;5060137;28;20488;-79
2022/08/22 02:17:57;;;;;;;11.20;10.70;;;21.10;18.10;;;;;;5060828;28;20780;-79
2022/08/22 02:20:25;;;;;;;11.23;10.73;;;21.20;18.20;;;;;;5061723;28;20407;-79
2022/08/22 02:23:14;;;;;;;11.83;11.03;;;21.20;18.00;;;;;;5061038;28;20854;-78
2022/08/22 02:26:01;;;;;;;11.90;11.23;;;21.20;18.00;;;;;;5061195;28;20418;-79
2022/08/22 02:28:56;;;;;;;11.60;11.00;;;21.10;17.80;;;;;;5062834;28;20457;-78
2022/08/22 02:31:31;;;;;;;11.73;11.13;;;21.10;18.10;;;;;;5058626;28;20414;-79
2022/08/22 02:34:01;;;;;;;12.07;11.40;;;21.10;18.20;;;;;;5060226;28;20449;-80
2022/08/22 02:36:50;;;;;;;13.13;12.37;;;21.10;18.40;;;;;;5060920;28;20815;-80
2022/08/22 02:40:12;;;;;;;12.63;12.00;;;21.00;19.30;;;;;;5060658;28;20492;-80
2022/08/22 02:42:54;;;;;;;11.87;11.27;;;21.00;18.30;;;;;;5036921;28;20431;-79
2022/08/22 02:45:56;;;;;;;11.00;10.50;;;20.90;18.00;;;;;;5057110;28;20414;-79
2022/08/22 02:48:31;;;;;;;11.97;11.27;;;21.00;18.10;;;;;;5059834;28;20447;-78
2022/08/22 02:51:38;;;;;;;12.60;12.00;;;20.90;18.00;;;;;;5057883;28;20433;-79
2022/08/22 02:54:16;;;;;;;12.17;11.47;;;20.90;18.00;;;;;;5020813;28;20450;-79
2022/08/22 02:56:54;;;;;;;11.60;11.10;;;20.90;18.00;;;;;;5055628;28;20422;-79
2022/08/22 02:59:26;;;;;;;12.30;11.67;;;20.90;18.10;;;;;;5062178;28;20446;-80
2022/08/22 03:01:52;;;;;;;12.00;11.17;;;20.90;18.40;;;;;;5058998;28;20414;-79
2022/08/22 03:04:20;;;;;;;11.97;11.37;;;20.90;19.20;;;;;;5061647;28;20434;-79
2022/08/22 03:07:04;;;;;;;12.60;12.00;;;20.80;19.50;;;;;;5061844;28;20409;-80
2022/08/22 03:09:53;;;;;;;11.50;10.90;;;20.60;20.10;;;;;;5063501;28;20489;-79
2022/08/22 03:12:46;;;;;;;12.03;11.37;;;20.30;21.60;;;;;;5069907;28;20421;-79
2022/08/22 03:15:24;;;;;;;13.60;12.93;;;20.10;22.40;;;;;;5061550;28;20410;-79
2022/08/22 03:18:14;;;;;;;13.10;12.40;;;19.90;23.00;;;;;;5061816;28;21050;-79
2022/08/22 03:20:45;;;;;;;13.53;12.93;;;19.80;23.50;;;;;;5063185;28;20497;-79
2022/08/22 03:23:35;;;;;;;13.83;12.93;;;19.70;24.10;;;;;;5062888;28;20434;-79
2022/08/22 03:26:06;;;;;;;13.00;12.40;;;19.60;24.50;;;;;;5063614;28;20399;-79
2022/08/22 03:28:43;;;;;;;13.43;12.50;;;19.70;24.90;;;;;;5061733;28;20415;-79
2022/08/22 03:31:13;;;;;;;13.30;12.70;;;19.80;24.50;;;;;;5062356;28;20414;-79
2022/08/22 03:33:40;;;;;;;12.70;12.00;;;20.00;24.00;;;;;;5062993;28;20461;-79
2022/08/22 03:36:30;;;;;;;12.87;12.27;;;19.80;21.90;;;;;;5062235;28;20900;-78
2022/08/22 03:39:17;;;;;;;13.43;12.63;;;19.60;23.00;;;;;;5072670;28;20476;-79
2022/08/22 03:42:01;;;;;;;13.13;12.40;;;19.50;22.80;;;;;;5061294;28;20406;-79
2022/08/22 03:44:54;;;;;;;13.20;12.40;;;19.50;23.20;;;;;;5062181;28;20796;-80
2022/08/22 03:48:11;;;;;;;13.80;13.00;;;19.60;22.70;;;;;;5062112;28;20496;-79
2022/08/22 03:50:58;;;;;;;12.60;12.00;;;19.90;21.90;;;;;;5051402;28;20426;-79
2022/08/22 03:53:32;;;;;;;13.57;12.87;;;20.00;21.90;;;;;;5060266;28;20986;-79
2022/08/22 03:56:26;;;;;;;13.10;12.50;;;20.10;22.00;;;;;;5060501;28;20428;-79
2022/08/22 03:59:42;;;;;;;13.27;12.67;;;20.20;22.40;;;;;;5061147;28;20461;-79
2022/08/22 04:02:29;;;;;;;12.50;11.80;;;20.00;22.50;;;;;;5051947;28;20418;-78
2022/08/22 04:05:07;;;;;;;13.47;12.87;;;19.80;23.30;;;;;;5057128;28;20897;-79
2022/08/22 04:08:17;;;;;;;13.57;12.73;;;19.50;23.40;;;;;;5057211;28;20497;-79
2022/08/22 04:11:22;;;;;;;13.30;12.70;;;19.40;24.00;;;;;;5052163;28;20476;-79
2022/08/22 04:14:25;;;;;;;13.30;12.60;;;19.40;23.90;;;;;;5056010;28;20442;-80
2022/08/22 04:17:04;;;;;;;14.40;13.60;;;19.20;24.00;;;;;;5056115;28;20414;-78
2022/08/22 04:19:57;;;;;;;14.63;13.50;;;19.20;24.00;;;;;;5054966;28;20454;-78
2022/08/22 04:22:47;;;;;;;13.77;13.13;;;19.20;23.60;;;;;;5055841;28;20402;-78
2022/08/22 04:25:24;;;;;;;14.10;13.40;;;19.10;23.10;;;;;;5055479;28;20402;-78
2022/08/22 04:28:18;;;;;;;13.17;12.33;;;19.00;23.10;;;;;;5055379;28;20734;-79
2022/08/22 04:30:48;;;;;;;13.10;12.40;;;19.10;22.90;;;;;;5042684;28;20453;-80
2022/08/22 04:33:36;;;;;;;14.47;13.40;;;19.00;24.20;;;;;;5035059;28;20482;-78
2022/08/22 04:36:12;;;;;;;14.77;13.97;;;18.90;24.90;;;;;;5050683;28;20949;-80
2022/08/22 04:38:49;;;;;;;14.50;13.70;;;18.90;25.60;;;;;;5071217;28;20488;-80
2022/08/22 04:41:23;;;;;;;14.47;13.67;;;18.90;26.20;;;;;;5075444;28;20418;-81
2022/08/22 04:43:59;;;;;;;14.13;13.47;;;19.10;26.10;;;;;;5062848;28;20530;-80
2022/08/22 04:46:34;;;;;;;14.30;13.20;;;19.30;26.00;;;;;;5047679;28;20415;-81
2022/08/22 04:49:20;;;;;;;14.10;13.20;;;19.40;25.80;;;;;;5039177;28;20430;-80
2022/08/22 04:51:58;;;;;;;13.80;13.10;;;19.50;25.50;;;;;;5040327;28;20419;-80
2022/08/22 04:54:56;;;;;;;14.20;13.50;;;19.60;25.10;;;;;;5062167;28;20438;-81
2022/08/22 04:58:06;;;;;;;13.50;12.80;;;19.70;24.40;;;;;;5057751;28;20414;-81
2022/08/22 05:00:55;;;;;;;14.27;13.37;;;19.80;23.90;;;;;;5025966;28;20436;-81
2022/08/22 05:03:24;;;;;;;13.20;12.60;;;19.80;23.90;;;;;;5034089;28;20435;-81
2022/08/22 05:05:52;;;;;;;14.43;13.40;;;19.90;23.80;;;;;;5035888;28;20425;-82
2022/08/22 05:08:24;;;;;;;14.07;13.37;;;19.90;23.40;;;;;;5033930;28;20414;-81
2022/08/22 05:10:50;;;;;;;14.40;13.13;;;19.90;23.60;;;;;;5034129;28;20435;-80
2022/08/22 05:13:37;;;;;;;;;;;;;;;;;;;;;
2022/08/22 05:16:31;;;;;;;15.30;13.83;;;20.00;24.10;;;;;;5036322;28;20984;-82
2022/08/22 05:19:13;;;;;;;15.07;14.37;;;19.90;24.20;;;;;;5034094;28;20455;-83
2022/08/22 05:21:46;;;;;;;15.03;14.00;;;19.80;24.60;;;;;;5036593;28;20400;-81
2022/08/22 05:24:47;;;;;;;14.60;13.47;;;19.60;25.80;;;;;;5032972;28;20443;-81
2022/08/22 05:27:19;;;;;;;15.10;14.30;;;19.50;25.60;;;;;;4994578;28;20420;-81
2022/08/22 05:29:49;;;;;;;14.87;14.03;;;19.30;25.70;;;;;;5046624;28;20454;-82
2022/08/22 05:32:46;;;;;;;14.97;14.17;;;19.20;25.50;;;;;;5055979;28;20426;-81
2022/08/22 05:35:13;;;;;;;14.90;14.00;;;19.10;25.20;;;;;;5053959;28;20430;-82
2022/08/22 05:37:44;;;;;;;14.33;13.63;;;19.10;25.00;;;;;;5054970;28;20410;-81
2022/08/22 05:40:19;;;;;;;14.83;14.03;;;19.10;24.20;;;;;;5057200;28;20753;-81
2022/08/22 05:42:45;;;;;;;14.37;13.47;;;19.20;23.90;;;;;;5053925;28;20433;-80
2022/08/22 05:45:12;;;;;;;14.47;13.63;;;19.30;23.90;;;;;;5054277;28;20406;-81
2022/08/22 05:47:45;;;;;;;15.03;14.33;;;19.30;23.60;;;;;;5055754;28;20398;-80
2022/08/22 05:50:49;;;;;;;13.83;13.23;;;19.50;24.10;;;;;;5054997;28;20395;-79
2022/08/22 05:53:41;;;;;;;14.90;13.93;;;19.60;23.20;;;;;;5054918;28;20820;-80
2022/08/22 05:56:34;;;;;;;13.77;13.07;;;19.50;23.20;;;;;;5054591;28;20418;-78
2022/08/22 05:59:14;;;;;;;13.87;13.07;;;19.60;23.00;;;;;;5055256;28;20971;-78
2022/08/22 06:01:59;;;;;;;14.80;13.97;;;19.80;22.60;;;;;;5038435;28;20791;-80
2022/08/22 06:04:36;;;;;;;15.27;14.13;;;19.90;22.20;;;;;;5036740;28;20439;-79
2022/08/22 06:07:13;;;;;;;14.47;13.77;;;19.70;22.40;;;;;;5035287;28;20419;-78
2022/08/22 06:09:54;;;;;;;16.63;15.23;;;19.50;23.40;;;;;;5033603;28;20473;-80
2022/08/22 06:12:32;;;;;;;15.57;14.57;;;19.40;23.30;;;;;;5038098;28;20478;-77
2022/08/22 06:15:10;;;;;;;15.10;14.30;;;19.20;23.70;;;;;;5054397;28;20423;-78
2022/08/22 06:17:43;;;;;;;16.20;15.20;;;19.10;23.70;;;;;;5037644;28;20467;-81
2022/08/22 06:20:18;;;;;;;16.27;15.30;;;19.20;24.00;;;;;;5039492;28;20469;-79
2022/08/22 06:22:53;;;;;;;15.03;14.23;;;19.20;23.80;;;;;;5038819;28;20434;-78
2022/08/22 06:25:43;;;;;;;17.10;15.90;;;19.10;24.30;;;;;;5040601;28;20514;-78
2022/08/22 06:28:15;;;;;;;16.73;15.63;;;19.10;25.40;;;;;;5040884;28;20522;-79
2022/08/22 06:30:44;;;;;;;13.80;12.70;;;19.20;25.20;;;;;;5047313;28;20415;-79
2022/08/22 06:33:22;;;;;;;12.40;11.40;;;19.20;24.50;;;;;;5053841;28;20511;-80
2022/08/22 06:39:19;;;;;;;13.90;12.90;;;19.00;24.80;;;;;;5047643;28;20446;-78
2022/08/22 06:41:51;;;;;;;14.57;12.00;;;19.00;25.20;;;;;;5048763;28;20435;-79
2022/08/22 06:44:22;;;;;;;13.23;12.40;;;19.10;24.70;;;;;;5054787;28;20430;-79
2022/08/22 06:46:54;;;;;;;13.67;12.87;;;19.20;24.40;;;;;;5062965;28;20410;-80
2022/08/22 06:49:22;;;;;;;12.17;11.20;;;19.30;24.10;;;;;;5050711;28;20483;-79
2022/08/22 06:51:48;;;;;;;10.80;10.30;;;19.40;24.10;;;;;;5045184;28;20909;-79
2022/08/22 06:54:20;;;;;;;12.97;12.27;;;19.50;24.30;;;;;;5045713;28;20442;-79
2022/08/22 06:56:49;;;;;;;12.37;11.33;;;19.60;24.10;;;;;;5049046;28;20434;-79
2022/08/22 06:59:21;;;;;;;13.07;12.17;;;19.70;23.90;;;;;;5047179;28;20824;-78
2022/08/22 07:02:11;;;;;;;13.13;12.33;;;19.80;24.00;;;;;;5050556;28;20426;-79
2022/08/22 07:04:38;;;;;;;13.90;12.80;;;19.90;24.30;;;;;;5041708;28;20431;-79
2022/08/22 07:07:04;;;;;;;12.80;11.90;;;20.00;24.10;;;;;;5043105;28;20404;-79
2022/08/22 07:09:34;;;;;;;14.10;13.10;;;20.20;23.90;;;;;;5047141;28;20799;-80
2022/08/22 07:12:14;;;;;;;11.03;10.40;;;20.30;23.40;;;;;;5057526;28;20419;-79
2022/08/22 07:14:43;;;;;;;11.40;10.67;;;20.40;23.10;;;;;;5059119;28;20443;-78
2022/08/22 07:17:36;;;;;;;11.70;10.90;;;20.40;23.10;;;;;;5041130;28;20465;-79
2022/08/22 07:20:24;;;;;;;13.67;12.90;;;20.50;22.80;;;;;;5039070;28;20999;-79
2022/08/22 07:23:04;;;;;;;12.20;11.60;;;20.60;22.70;;;;;;5049495;28;20442;-79
2022/08/22 07:25:33;;;;;;;12.30;11.43;;;20.70;22.40;;;;;;5061943;28;20477;-78
2022/08/22 07:28:12;;;;;;;10.73;10.13;;;20.70;22.20;;;;;;5055746;28;20514;-78
2022/08/22 07:30:40;;;;;;;10.53;10.00;;;20.70;22.20;;;;;;5059524;28;20437;-79
2022/08/22 07:33:24;;;;;;;11.80;11.10;;;20.80;22.10;;;;;;5060130;28;20451;-79
2022/08/22 07:35:59;;;;;;;13.17;12.50;;;20.80;21.60;;;;;;5058867;28;20417;-79
2022/08/22 07:38:44;;;;;;;12.30;11.60;;;21.00;21.00;;;;;;5044144;28;20447;-78
2022/08/22 07:41:18;;;;;;;10.27;9.77;;;21.10;20.40;;;;;;5055990;28;20776;-78
2022/08/22 07:43:53;;;;;;;11.87;11.07;;;21.10;20.30;;;;;;5038853;28;20441;-78
2022/08/22 07:46:22;;;;;;;13.93;13.23;;;21.20;20.10;;;;;;5049059;28;20421;-78
2022/08/22 07:48:53;;;;;;;13.50;12.40;;;21.30;20.10;;;;;;5056194;28;20905;-78
2022/08/22 07:51:29;;;;;;;12.00;11.40;;;21.30;20.10;;;;;;5067281;28;20437;-78
2022/08/22 07:54:06;;;;;;;13.10;12.50;;;21.40;20.10;;;;;;5059240;28;20438;-77
2022/08/22 07:56:39;;;;;;;14.80;13.80;;;21.50;20.10;;;;;;5034854;28;20506;-77
2022/08/22 07:59:16;;;;;;;14.10;13.17;;;21.60;20.60;;;;;;5034832;28;20493;-78
2022/08/22 08:01:48;;;;;;;13.53;12.70;;;21.60;19.70;;;;;;5050118;28;20460;-77
2022/08/22 08:04:19;;;;;;;13.40;12.60;;;21.70;19.70;;;;;;5054671;28;20423;-78
2022/08/22 08:06:49;;;;;;;12.77;12.17;;;21.70;19.70;;;;;;5054755;28;20407;-77
2022/08/22 08:09:16;;;;;;;12.73;12.10;;;21.80;20.00;;;;;;5055139;28;20790;-78
2022/08/22 08:11:43;;;;;;;13.10;12.40;;;21.90;19.80;;;;;;5051625;28;20426;-79
2022/08/22 08:14:13;;;;;;;12.87;12.13;;;22.00;19.50;;;;;;5055295;28;20434;-80
2022/08/22 08:17:04;;;;;;;12.90;12.10;;;22.10;19.40;;;;;;5037445;28;20478;-78
2022/08/22 08:19:34;;;;;;;12.07;11.40;;;22.20;19.10;;;;;;5039331;28;20474;-79
2022/08/22 08:22:00;;;;;;;12.90;12.30;;;22.30;19.10;;;;;;5038548;28;20474;-80
2022/08/22 08:24:34;;;;;;;12.30;11.50;;;22.40;19.30;;;;;;5038893;28;20431;-80
2022/08/22 08:29:57;;;;;;;11.87;11.27;;;22.50;19.20;;;;;;5039962;28;20772;-78
2022/08/22 08:32:26;;;;;;;11.57;10.97;;;22.60;19.20;;;;;;5035453;28;20439;-78
2022/08/22 08:34:52;;;;;;;12.03;11.53;;;22.60;18.90;;;;;;5035464;28;20405;-77
2022/08/22 08:37:32;;;;;;;13.47;12.87;;;22.70;18.70;;;;;;5035713;28;20602;-78
2022/08/22 08:40:01;;;;;;;12.90;12.20;;;22.80;18.50;;;;;;5059012;28;20519;-79
2022/08/22 08:46:03;;;;;;;12.83;12.20;;;23.00;18.40;;;;;;5054334;28;20461;-77
2022/08/22 08:48:50;;;;;;;13.60;12.80;;;23.10;18.30;;;;;;5057715;28;20929;-79
2022/08/22 08:51:41;;;;;;;12.47;11.87;;;23.10;18.20;;;;;;5057154;28;20766;-78
2022/08/22 08:54:22;;;;;;;12.67;12.07;;;23.30;18.20;;;;;;5057508;28;20438;-77
2022/08/22 08:57:06;;;;;;;12.60;12.00;;;23.30;18.30;;;;;;5056690;28;20564;-78
2022/08/22 09:00:09;;;;;;;12.83;12.10;;;23.50;18.10;;;;;;5072853;28;20454;-79
2022/08/22 09:02:54;;;;;;;14.00;12.60;;;23.50;18.20;;;;;;5038171;28;20411;-78
2022/08/22 09:05:34;;;;;;;11.87;11.27;;;23.60;18.30;;;;;;5034461;28;20411;-78
2022/08/22 09:08:43;;;;;;;14.77;14.03;;;23.70;18.90;;;;;;5051984;28;20753;-78
2022/08/22 09:11:45;;;;;;;14.10;13.37;;;23.80;18.60;;;;;;5036547;28;20511;-79
2022/08/22 09:14:13;;;;;;;14.00;13.30;;;23.80;18.60;;;;;;5054479;28;20797;-79
2022/08/22 09:17:22;;;;;;;13.20;12.57;;;23.80;18.80;;;;;;5045400;28;20491;-78
2022/08/22 09:20:12;;;;;;;14.40;13.63;;;24.00;18.10;;;;;;5038467;28;20826;-79
2022/08/22 09:23:18;;;;;;;13.17;12.57;;;24.20;17.80;;;;;;5050520;28;20437;-78
2022/08/22 09:26:05;;;;;;;12.43;11.83;;;24.30;17.50;;;;;;5041920;28;20854;-78
2022/08/22 09:28:46;;;;;;;12.43;11.83;;;24.50;17.00;;;;;;5046430;28;20422;-79
2022/08/22 09:31:33;;;;;;;11.90;11.40;;;24.80;16.90;;;;;;5038336;28;20419;-79
2022/08/22 09:34:21;;;;;;;14.30;13.60;;;25.00;16.50;;;;;;5034534;28;20501;-78
2022/08/22 09:37:01;;;;;;;13.97;13.17;;;25.30;15.90;;;;;;5035452;28;20901;-78
2022/08/22 09:40:04;;;;;;;14.10;13.40;;;25.50;15.20;;;;;;5036185;28;20462;-78
2022/08/22 09:42:45;;;;;;;12.67;12.10;;;25.70;14.90;;;;;;5037691;28;20391;-78
2022/08/22 09:45:32;;;;;;;13.97;13.37;;;25.90;14.50;;;;;;5052180;28;20407;-80
2022/08/22 09:48:11;;;;;;;12.57;11.67;;;26.10;14.40;;;;;;5062164;28;20410;-79
2022/08/22 09:50:39;;;;;;;15.23;14.53;;;26.20;13.70;;;;;;5068161;28;20410;-79
2022/08/22 09:53:11;;;;;;;14.03;13.43;;;26.30;13.40;;;;;;5060239;28;20483;-79
2022/08/22 09:56:07;;;;;;;12.83;12.13;;;26.30;13.40;;;;;;5057612;28;20509;-80
2022/08/22 09:58:41;;;;;;;13.87;13.00;;;26.40;12.30;;;;;;5070176;28;20717;-78
2022/08/22 10:01:44;;;;;;;13.43;12.73;;;26.50;12.80;;;;;;5068346;28;20418;-80
2022/08/22 10:04:53;;;;;;;12.97;12.37;;;26.60;13.20;;;;;;5045117;28;20858;-79
2022/08/22 10:07:40;;;;;;;15.00;14.10;;;26.80;13.00;;;;;;5055373;28;20421;-79
2022/08/22 10:10:17;;;;;;;13.97;13.20;;;26.90;12.40;;;;;;5067061;28;20402;-78
2022/08/22 10:12:58;;;;;;;14.70;14.00;;;26.90;13.00;;;;;;5072622;28;20453;-80
2022/08/22 10:15:47;;;;;;;14.10;13.50;;;26.90;11.70;;;;;;5055448;28;20427;-80
2022/08/22 10:18:38;;;;;;;13.03;12.43;;;26.90;10.40;;;;;;5049136;28;20447;-79
2022/08/22 10:21:17;;;;;;;12.97;12.30;;;27.00;9.50;;;;;;5068893;28;20414;-78
2022/08/22 10:23:53;;;;;;;12.50;11.90;;;27.00;9.90;;;;;;5085854;28;20460;-79
2022/08/22 10:26:32;;;;;;;12.70;12.20;;;27.10;10.50;;;;;;5068931;28;20760;-80
2022/08/22 10:29:34;;;;;;;13.40;12.70;;;27.20;10.20;;;;;;5067352;28;20486;-79
2022/08/22 10:32:24;;;;;;;12.90;12.40;;;27.20;9.90;;;;;;5064470;28;20848;-79
2022/08/22 10:34:56;;;;;;;13.67;13.00;;;27.10;9.10;;;;;;5082439;28;20414;-79
2022/08/22 10:37:36;;;;;;;14.37;13.77;;;27.20;8.90;;;;;;5047158;28;20426;-79
2022/08/22 10:40:11;;;;;;;11.80;11.30;;;27.30;8.70;;;;;;5045627;28;20546;-79
2022/08/22 10:42:56;;;;;;;12.80;12.20;;;27.30;8.70;;;;;;5053977;28;20497;-79
2022/08/22 10:45:38;;;;;;;12.77;12.17;;;27.10;9.00;;;;;;5063863;28;20915;-79
2022/08/22 10:48:04;;;;;;;12.60;11.90;;;27.20;8.70;;;;;;5058599;28;20418;-79
2022/08/22 10:50:41;;;;;;;13.17;12.50;;;27.30;8.50;;;;;;5050973;28;21108;-79
2022/08/22 10:53:29;;;;;;;14.17;13.37;;;27.40;8.20;;;;;;5060708;28;20605;-80
2022/08/22 10:56:02;;;;;;;13.60;12.90;;;27.40;8.80;;;;;;5079445;28;20406;-79
2022/08/22 10:58:35;;;;;;;12.40;11.90;;;27.30;8.70;;;;;;5060736;28;20956;-80
2022/08/22 11:01:03;;;;;;;14.00;13.33;;;27.40;8.80;;;;;;5044680;28;20396;-80
2022/08/22 11:04:04;;;;;;;13.10;12.40;;;27.40;8.80;;;;;;5058385;28;20441;-80
2022/08/22 11:06:49;;;;;;;14.17;13.47;;;27.50;8.60;;;;;;5060867;28;20547;-79
2022/08/22 11:09:22;;;;;;;13.90;13.30;;;27.40;8.50;;;;;;5062584;28;20924;-80
2022/08/22 11:12:18;;;;;;;12.87;12.27;;;27.40;8.20;;;;;;5057684;28;20420;-80
2022/08/22 11:15:06;;;;;;;12.90;12.33;;;27.30;8.60;;;;;;5042753;28;20427;-79
2022/08/22 11:18:21;;;;;;;13.63;13.03;;;27.30;8.70;;;;;;5042273;28;20418;-80
2022/08/22 11:20:55;;;;;;;15.00;14.00;;;27.00;8.60;;;;;;5005086;28;20436;-78
2022/08/22 11:23:23;;;;;;;12.33;11.83;;;26.80;9.10;;;;;;5038724;28;20419;-78
2022/08/22 11:26:00;;;;;;;13.53;12.83;;;26.70;8.70;;;;;;5037563;28;20906;-78
2022/08/22 11:29:00;;;;;;;11.93;11.37;;;26.60;9.00;;;;;;5055769;28;20899;-79
2022/08/22 11:31:40;;;;;;;12.67;12.17;;;26.60;8.40;;;;;;5039936;28;20419;-79
2022/08/22 11:34:28;;;;;;;12.43;11.63;;;26.50;10.30;;;;;;5041204;28;20469;-79
2022/08/22 11:37:14;;;;;;;13.63;13.03;;;26.50;10.70;;;;;;5059124;28;20423;-79
2022/08/22 11:39:45;;;;;;;13.23;12.33;;;26.40;10.60;;;;;;5041332;28;21024;-79
2022/08/22 11:42:32;;;;;;;12.87;12.37;;;26.30;9.80;;;;;;5041649;28;20408;-80
2022/08/22 11:45:00;;;;;;;13.30;12.70;;;26.30;9.00;;;;;;5050496;28;20426;-80
2022/08/22 11:47:35;;;;;;;13.20;12.57;;;26.30;9.90;;;;;;5069067;28;20947;-79
2022/08/22 11:50:01;;;;;;;12.63;12.03;;;26.30;8.20;;;;;;5058601;28;20761;-79
2022/08/22 11:52:55;;;;;;;13.83;13.03;;;26.30;8.30;;;;;;5056799;28;20502;-79
2022/08/22 11:55:26;;;;;;;10.90;10.50;;;26.40;8.30;;;;;;5055865;28;20234;-79
2022/08/22 11:58:24;;;;;;;10.83;10.40;;;26.30;7.30;;;;;;5056678;28;20417;-79
2022/08/22 12:01:07;;;;;;;10.77;10.20;;;26.30;6.70;;;;;;5033853;28;20434;-77
2022/08/22 12:03:46;;;;;;;11.10;10.60;;;26.30;6.50;;;;;;5043064;28;20454;-77
2022/08/22 12:06:47;;;;;;;14.43;13.47;;;26.20;6.80;;;;;;5044451;28;20396;-78
2022/08/22 12:09:17;;;;;;;13.03;12.00;;;26.30;7.90;;;;;;5041905;28;21001;-78
2022/08/22 12:11:53;;;;;;;13.13;12.53;;;26.30;8.70;;;;;;5044220;28;20407;-78
2022/08/22 12:14:44;;;;;;;12.90;12.20;;;26.40;8.30;;;;;;5042957;28;20451;-79
2022/08/22 12:17:45;;;;;;;12.93;12.17;;;26.40;8.70;;;;;;5039950;28;20439;-78
2022/08/22 12:20:22;;;;;;;13.27;12.77;;;26.40;8.70;;;;;;5025289;28;20840;-78
2022/08/22 12:23:15;;;;;;;12.40;11.90;;;26.40;8.80;;;;;;5042054;28;20438;-78
2022/08/22 12:26:09;;;;;;;12.33;11.80;;;26.40;9.40;;;;;;5045253;28;20422;-78
2022/08/22 12:28:40;;;;;;;13.87;13.27;;;26.60;9.20;;;;;;5035818;28;20439;-78
2022/08/22 12:31:24;;;;;;;14.13;13.23;;;26.60;9.10;;;;;;5055090;28;20807;-79
2022/08/22 12:34:02;;;;;;;14.10;13.40;;;26.70;9.30;;;;;;5042050;28;20538;-78
2022/08/22 12:36:55;;;;;;;15.57;14.77;;;26.70;9.50;;;;;;5040717;28;21008;-78
2022/08/22 12:39:41;;;;;;;14.00;13.20;;;26.60;9.20;;;;;;5054963;28;20838;-80
2022/08/22 12:42:42;;;;;;;11.77;11.23;;;26.50;9.30;;;;;;5039777;28;20411;-79
2022/08/22 12:45:35;;;;;;;13.70;13.13;;;26.60;9.30;;;;;;5052214;28;20426;-79
2022/08/22 12:48:26;;;;;;;13.60;13.00;;;26.90;8.60;;;;;;5062538;28;20433;-79
2022/08/22 12:51:25;;;;;;;12.77;11.93;;;27.00;8.60;;;;;;5059156;28;20430;-80
2022/08/22 12:54:19;;;;;;;12.10;11.50;;;27.20;8.70;;;;;;5054922;28;20439;-79
2022/08/22 12:57:11;;;;;;;13.07;12.37;;;27.20;8.70;;;;;;5039422;28;20905;-78
2022/08/22 12:59:41;;;;;;;13.60;12.90;;;27.30;8.40;;;;;;5042492;28;20465;-78
2022/08/22 13:02:18;;;;;;;11.70;11.10;;;27.20;7.90;;;;;;5056662;28;20438;-79
2022/08/22 13:04:59;;;;;;;12.33;11.73;;;27.20;8.40;;;;;;5054097;28;20446;-78
2022/08/22 13:07:33;;;;;;;13.27;12.67;;;27.50;8.00;;;;;;5051584;28;20790;-77
2022/08/22 13:10:27;;;;;;;13.93;13.33;;;27.50;7.90;;;;;;5055452;28;20453;-78
2022/08/22 13:12:56;;;;;;;13.20;12.60;;;27.50;7.70;;;;;;5022216;28;20380;-77
2022/08/22 13:15:32;;;;;;;13.97;13.17;;;27.40;7.80;;;;;;5033810;28;20765;-79
2022/08/22 13:18:00;;;;;;;13.47;12.77;;;27.30;7.60;;;;;;5037387;28;20419;-79
2022/08/22 13:20:35;;;;;;;13.40;12.70;;;27.30;7.80;;;;;;5038598;28;20411;-78
2022/08/22 13:23:10;;;;;;;16.40;14.70;;;27.20;8.30;;;;;;5042328;28;20427;-79
2022/08/22 13:26:00;;;;;;;11.60;10.83;;;27.10;8.60;;;;;;5045901;28;20529;-79
2022/08/22 13:28:29;;;;;;;13.17;12.57;;;27.00;8.60;;;;;;5049518;28;20404;-78
2022/08/22 13:30:55;;;;;;;13.53;12.90;;;27.00;9.10;;;;;;5052855;28;20419;-81
2022/08/22 13:33:26;;;;;;;13.57;12.97;;;27.00;8.10;;;;;;5053529;28;20482;-79
2022/08/22 13:35:59;;;;;;;14.27;13.57;;;27.20;7.70;;;;;;5051692;28;20403;-79
2022/08/22 13:38:33;;;;;;;11.70;11.30;;;27.10;7.60;;;;;;5050025;28;20447;-77
2022/08/22 13:41:02;;;;;;;14.03;13.30;;;27.20;7.20;;;;;;5040327;28;20431;-78
2022/08/22 13:43:33;;;;;;;13.67;13.17;;;27.50;7.00;;;;;;5036200;28;20439;-78
2022/08/22 13:46:03;;;;;;;14.53;13.93;;;27.40;7.00;;;;;;5051939;28;20406;-78
2022/08/22 13:48:47;;;;;;;12.30;11.60;;;27.40;7.10;;;;;;5052506;28;20406;-78
2022/08/22 13:51:21;;;;;;;12.80;12.30;;;27.50;7.20;;;;;;5069853;28;20410;-78
2022/08/22 13:54:10;;;;;;;12.77;12.20;;;27.50;7.10;;;;;;5056064;28;20460;-78